createdAt,value
2018-09-20T00:01:15.164Z,77.40
2018-09-20T00:03:44.345Z,77.40
2018-09-20T00:06:13.432Z,78.00
2018-09-20T00:08:42.535Z,77.50
2018-09-20T00:11:11.767Z,77.30
2018-09-20T00:13:40.831Z,77.60
2018-09-20T00:16:09.934Z,77.10
2018-09-20T00:18:38.968Z,76.60
2018-09-20T00:21:07.988Z,76.90
2018-09-20T00:23:37.120Z,77.10
2018-09-20T00:26:06.520Z,76.80
2018-09-20T00:28:35.608Z,76.70
2018-09-20T00:31:04.610Z,76.90
2018-09-20T00:33:33.588Z,77.50
2018-09-20T00:36:02.601Z,77.60
2018-09-20T00:38:31.682Z,77.50
2018-09-20T00:41:00.673Z,76.90
2018-09-20T00:43:29.756Z,78.90
2018-09-20T00:45:58.937Z,78.60
2018-09-20T00:48:28.019Z,79.70
2018-09-20T00:50:57.123Z,80.50
2018-09-20T00:53:26.265Z,78.70
2018-09-20T00:55:55.427Z,78.90
2018-09-20T00:58:24.417Z,79.60
2018-09-20T01:00:53.388Z,80.50
2018-09-20T01:03:22.596Z,81.00
2018-09-20T01:05:51.724Z,80.00
2018-09-20T01:08:20.798Z,80.10
2018-09-20T01:10:49.988Z,81.10
2018-09-20T01:13:19.084Z,81.10
2018-09-20T01:15:48.060Z,81.80
2018-09-20T01:18:17.111Z,81.30
2018-09-20T01:20:46.164Z,83.10
2018-09-20T01:23:15.048Z,82.50
2018-09-20T01:25:44.150Z,82.40
2018-09-20T01:28:13.039Z,82.60
2018-09-20T01:30:42.180Z,83.60
2018-09-20T01:33:11.232Z,83.40
2018-09-20T01:35:40.431Z,84.20
2018-09-20T01:38:09.519Z,85.70
2018-09-20T01:40:38.603Z,86.30
2018-09-20T01:43:07.750Z,86.40
2018-09-20T01:45:36.832Z,86.80
2018-09-20T01:48:06.101Z,86.70
2018-09-20T01:50:35.300Z,86.10
2018-09-20T01:53:04.405Z,85.80
2018-09-20T01:55:33.518Z,85.80
2018-09-20T01:58:02.575Z,85.50
2018-09-20T02:00:31.684Z,86.00
2018-09-20T02:03:00.718Z,85.60
2018-09-20T02:05:29.784Z,85.80
2018-09-20T02:07:58.792Z,84.80
2018-09-20T02:10:27.852Z,84.70
2018-09-20T02:12:56.856Z,86.20
2018-09-20T02:15:25.964Z,87.00
2018-09-20T02:17:55.048Z,86.90
2018-09-20T02:20:24.279Z,87.70
2018-09-20T02:22:53.331Z,88.70
2018-09-20T02:25:22.344Z,88.20
2018-09-20T02:27:51.332Z,86.80
2018-09-20T02:30:20.512Z,86.20
2018-09-20T02:32:49.644Z,85.90
2018-09-20T02:35:18.872Z,85.70
2018-09-20T02:37:47.913Z,85.40
2018-09-20T02:40:17.133Z,85.30
2018-09-20T02:42:46.188Z,85.40
2018-09-20T02:45:15.208Z,85.50
2018-09-20T02:47:44.186Z,84.80
2018-09-20T02:50:13.176Z,85.00
2018-09-20T02:52:42.269Z,86.40
2018-09-20T02:55:11.372Z,86.90
2018-09-20T02:57:40.372Z,87.30
2018-09-20T03:00:09.368Z,87.20
2018-09-20T03:02:38.443Z,88.10
2018-09-20T03:05:07.532Z,88.50
2018-09-20T03:07:36.604Z,89.60
2018-09-20T03:10:05.768Z,90.20
2018-09-20T03:12:34.840Z,90.30
2018-09-20T03:15:03.877Z,90.70
2018-09-20T03:17:32.896Z,90.20
2018-09-20T03:20:01.940Z,90.30
2018-09-20T03:22:31.028Z,90.20
2018-09-20T03:24:59.976Z,90.10
2018-09-20T03:27:28.974Z,90.50
2018-09-20T03:29:58.053Z,90.30
2018-09-20T03:32:26.992Z,90.70
2018-09-20T03:34:56.069Z,90.70
2018-09-20T03:37:25.138Z,90.80
2018-09-20T03:39:54.131Z,90.90
2018-09-20T03:42:23.120Z,91.00
2018-09-20T03:44:52.134Z,91.10
2018-09-20T03:47:21.167Z,91.60
2018-09-20T03:49:50.205Z,91.80
2018-09-20T03:52:19.305Z,92.20
2018-09-20T03:54:48.389Z,92.50
2018-09-20T03:57:17.613Z,92.20
2018-09-20T03:59:46.735Z,91.80
2018-09-20T04:02:15.676Z,91.80
2018-09-20T04:04:44.672Z,91.10
2018-09-20T04:07:13.868Z,90.70
2018-09-20T04:09:42.944Z,90.60
2018-09-20T04:12:11.977Z,90.70
2018-09-20T04:14:41.052Z,91.30
2018-09-20T04:17:10.250Z,91.30
2018-09-20T04:19:39.348Z,91.80
2018-09-20T04:22:08.556Z,91.90
2018-09-20T04:24:37.652Z,92.00
2018-09-20T04:27:06.802Z,92.30
2018-09-20T04:29:35.948Z,92.40
2018-09-20T04:32:05.088Z,92.10
2018-09-20T04:34:34.132Z,92.10
2018-09-20T04:37:03.165Z,92.30
2018-09-20T04:39:32.184Z,92.20
2018-09-20T04:42:01.194Z,92.60
2018-09-20T04:44:30.208Z,93.00
2018-09-20T04:46:59.316Z,93.50
2018-09-20T04:49:28.305Z,93.30
2018-09-20T04:51:57.384Z,93.80
2018-09-20T04:54:26.592Z,93.70
2018-09-20T04:56:57.128Z,94.10
2018-09-20T04:59:27.605Z,94.40
2018-09-20T05:01:57.803Z,95.10
2018-09-20T05:04:26.945Z,95.30
2018-09-20T05:06:55.831Z,94.90
2018-09-20T05:09:25.086Z,94.60
2018-09-20T05:11:54.124Z,94.90
2018-09-20T05:14:23.276Z,95.20
2018-09-20T05:16:52.433Z,95.20
2018-09-20T05:19:21.493Z,95.40
2018-09-20T05:21:50.645Z,96.00
2018-09-20T05:24:20.405Z,95.50
2018-09-20T05:26:49.533Z,95.40
2018-09-20T05:29:18.511Z,95.70
2018-09-20T05:31:47.484Z,95.30
2018-09-20T05:34:16.750Z,96.30
2018-09-20T05:36:45.904Z,97.50
2018-09-20T05:39:14.884Z,96.40
2018-09-20T05:41:43.966Z,96.80
2018-09-20T05:44:13.040Z,96.70
2018-09-20T05:46:42.736Z,97.60
2018-09-20T05:49:11.768Z,97.00
2018-09-20T05:51:40.786Z,96.70
2018-09-20T05:54:09.708Z,97.00
2018-09-20T05:56:38.767Z,97.50
2018-09-20T05:59:07.913Z,98.40
2018-09-20T06:01:37.055Z,98.20
2018-09-20T06:04:06.145Z,97.90
2018-09-20T06:06:35.244Z,98.70
2018-09-20T06:09:05.014Z,98.50
2018-09-20T06:11:34.074Z,98.40
2018-09-20T06:14:03.028Z,99.20
2018-09-20T06:16:32.025Z,98.80
2018-09-20T06:19:01.112Z,98.90
2018-09-20T06:21:30.221Z,99.40
2018-09-20T06:23:59.381Z,99.70
2018-09-20T06:26:28.765Z,99.90
2018-09-20T06:28:57.863Z,99.90
2018-09-20T06:31:26.893Z,99.90
2018-09-20T06:33:55.996Z,99.90
2018-09-20T06:36:25.119Z,99.90
2018-09-20T06:38:54.284Z,99.90
2018-09-20T06:41:23.411Z,99.90
2018-09-20T06:43:52.669Z,99.90
2018-09-20T06:46:21.872Z,99.90
2018-09-20T06:48:51.034Z,99.90
2018-09-20T06:51:20.285Z,99.90
2018-09-20T06:53:49.392Z,99.90
2018-09-20T06:56:18.476Z,99.90
2018-09-20T06:58:47.562Z,99.90
2018-09-20T07:01:16.690Z,99.90
2018-09-20T07:03:45.736Z,99.90
2018-09-20T07:06:14.927Z,99.90
2018-09-20T07:08:44.030Z,99.90
2018-09-20T07:11:13.121Z,99.90
2018-09-20T07:13:42.336Z,99.90
2018-09-20T07:16:11.651Z,99.90
2018-09-20T07:18:40.736Z,99.90
2018-09-20T07:21:09.853Z,99.90
2018-09-20T07:23:38.922Z,99.90
2018-09-20T07:26:08.052Z,99.90
2018-09-20T07:28:37.224Z,99.90
2018-09-20T07:31:06.725Z,99.90
2018-09-20T07:33:35.811Z,99.90
2018-09-20T07:36:05.463Z,99.90
2018-09-20T07:38:34.660Z,99.90
2018-09-20T07:41:03.805Z,99.90
2018-09-20T07:43:32.897Z,99.90
2018-09-20T07:46:02.062Z,99.90
2018-09-20T07:48:31.106Z,99.90
2018-09-20T07:51:00.219Z,99.90
2018-09-20T07:53:29.182Z,99.90
2018-09-20T07:55:58.200Z,99.40
2018-09-20T07:58:27.734Z,99.50
2018-09-20T08:00:56.745Z,99.20
2018-09-20T08:03:25.879Z,99.80
2018-09-20T08:05:54.836Z,99.90
2018-09-20T08:08:23.967Z,99.90
2018-09-20T08:10:53.051Z,98.90
2018-09-20T08:13:22.145Z,99.60
2018-09-20T08:15:51.268Z,98.00
2018-09-20T08:18:20.228Z,98.70
2018-09-20T08:20:49.313Z,97.80
2018-09-20T08:23:18.414Z,98.90
2018-09-20T08:25:47.553Z,97.80
2018-09-20T08:28:16.536Z,97.00
2018-09-20T08:30:45.588Z,97.10
2018-09-20T08:33:14.685Z,96.80
2018-09-20T08:35:43.880Z,97.40
2018-09-20T08:38:12.980Z,97.40
2018-09-20T08:40:42.236Z,96.20
2018-09-20T08:43:11.296Z,96.90
2018-09-20T08:45:40.274Z,96.70
2018-09-20T08:48:09.273Z,96.30
2018-09-20T08:50:38.350Z,96.40
2018-09-20T08:53:07.392Z,96.70
2018-09-20T08:55:36.572Z,96.20
2018-09-20T08:58:05.632Z,96.50
2018-09-20T09:00:34.800Z,96.60
2018-09-20T09:03:03.934Z,96.00
2018-09-20T09:05:33.120Z,96.30
2018-09-20T09:08:02.125Z,96.30
2018-09-20T09:10:31.116Z,96.00
2018-09-20T09:13:00.168Z,96.00
2018-09-20T09:15:29.315Z,94.70
2018-09-20T09:17:58.402Z,94.90
2018-09-20T09:20:27.338Z,94.10
2018-09-20T09:22:56.289Z,93.80
2018-09-20T09:25:25.379Z,93.80
2018-09-20T09:27:54.501Z,92.60
2018-09-20T09:30:23.606Z,92.20
2018-09-20T09:32:52.480Z,92.20
2018-09-20T09:35:21.578Z,93.10
2018-09-20T09:37:50.644Z,91.70
2018-09-20T09:40:19.832Z,90.80
2018-09-20T09:42:49.182Z,90.40
2018-09-20T09:45:18.252Z,90.30
2018-09-20T09:47:47.444Z,90.50
2018-09-20T09:50:16.524Z,90.70
2018-09-20T09:52:45.794Z,90.00
2018-09-20T09:55:15.194Z,90.50
2018-09-20T09:57:47.625Z,90.20
2018-09-20T10:00:16.804Z,89.70
2018-09-20T10:02:46.012Z,87.30
2018-09-20T10:05:14.968Z,87.10
2018-09-20T10:07:43.964Z,86.90
2018-09-20T10:10:13.128Z,85.80
2018-09-20T10:12:42.316Z,85.40
2018-09-20T10:15:11.553Z,87.00
2018-09-20T10:17:40.731Z,88.10
2018-09-20T10:20:09.896Z,90.00
2018-09-20T10:22:38.979Z,88.00
2018-09-20T10:25:08.207Z,89.40
2018-09-20T10:27:37.445Z,86.10
2018-09-20T10:30:07.169Z,87.50
2018-09-20T10:32:36.555Z,87.00
2018-09-20T10:35:06.208Z,88.80
2018-09-20T10:37:35.722Z,89.80
2018-09-20T10:40:05.605Z,90.60
2018-09-20T10:42:34.639Z,90.00
2018-09-20T10:45:03.840Z,89.80
2018-09-20T10:47:33.015Z,90.50
2018-09-20T10:50:02.139Z,88.20
2018-09-20T10:52:31.289Z,88.50
2018-09-20T10:55:00.347Z,86.30
2018-09-20T10:57:29.466Z,85.40
2018-09-20T10:59:58.566Z,86.00
2018-09-20T11:02:27.698Z,85.20
2018-09-20T11:04:56.952Z,83.10
2018-09-20T11:07:26.059Z,82.90
2018-09-20T11:09:55.330Z,83.00
2018-09-20T11:12:24.438Z,80.60
2018-09-20T11:14:53.586Z,81.50
2018-09-20T11:17:22.745Z,81.00
2018-09-20T11:19:51.712Z,79.80
2018-09-20T11:22:20.841Z,79.60
2018-09-20T11:24:49.904Z,79.30
2018-09-20T11:27:19.054Z,80.00
2018-09-20T11:29:48.226Z,80.30
2018-09-20T11:32:17.428Z,78.80
2018-09-20T11:34:46.619Z,76.90
2018-09-20T11:37:15.719Z,76.70
2018-09-20T11:39:44.973Z,76.60
2018-09-20T11:42:13.980Z,76.30
2018-09-20T11:44:43.081Z,76.90
2018-09-20T11:47:12.310Z,75.20
2018-09-20T11:49:41.489Z,72.40
2018-09-20T11:52:09.831Z,72.60
2018-09-20T11:54:37.964Z,72.20
2018-09-20T11:57:06.156Z,70.50
2018-09-20T11:59:34.337Z,70.90
2018-09-20T12:02:02.458Z,68.20
2018-09-20T12:04:30.489Z,67.20
2018-09-20T12:06:58.562Z,65.70
2018-09-20T12:09:26.928Z,66.10
2018-09-20T12:11:55.066Z,66.80
2018-09-20T12:14:23.177Z,66.00
2018-09-20T12:16:51.330Z,64.30
2018-09-20T12:19:19.412Z,63.50
2018-09-20T12:21:47.593Z,62.90
2018-09-20T12:24:17.313Z,64.10
2018-09-20T12:26:46.530Z,65.60
2018-09-20T12:29:15.880Z,61.00
2018-09-20T12:31:45.060Z,61.80
2018-09-20T12:34:14.127Z,62.00
2018-09-20T12:36:43.215Z,61.30
2018-09-20T12:39:13.401Z,62.10
2018-09-20T12:41:42.881Z,59.70
2018-09-20T12:44:10.934Z,58.30
2018-09-20T12:46:39.094Z,57.00
2018-09-20T12:49:07.218Z,56.80
2018-09-20T12:51:35.658Z,57.50
2018-09-20T12:54:04.790Z,56.80
2018-09-20T12:56:33.066Z,56.30
2018-09-20T12:59:01.165Z,55.60
2018-09-20T13:01:29.313Z,56.30
2018-09-20T13:03:57.484Z,55.70
2018-09-20T13:06:25.685Z,54.70
2018-09-20T13:08:54.718Z,53.50
2018-09-20T13:11:23.674Z,53.80
2018-09-20T13:13:52.800Z,53.60
2018-09-20T13:16:21.893Z,54.00
2018-09-20T13:18:50.893Z,54.00
2018-09-20T13:21:19.958Z,52.10
2018-09-20T13:23:48.832Z,50.90
2018-09-20T13:26:17.955Z,51.30
2018-09-20T13:28:47.332Z,51.30
2018-09-20T13:31:16.615Z,51.30
2018-09-20T13:33:45.633Z,51.90
2018-09-20T13:36:14.698Z,53.90
2018-09-20T13:38:44.108Z,53.60
2018-09-20T13:41:13.339Z,53.40
2018-09-20T13:43:42.871Z,52.30
2018-09-20T13:46:12.146Z,52.30
2018-09-20T13:48:41.440Z,52.60
2018-09-20T13:51:11.337Z,53.30
2018-09-20T13:53:40.704Z,52.90
2018-09-20T13:56:10.017Z,52.20
2018-09-20T13:58:39.398Z,52.50
2018-09-20T14:01:08.696Z,52.10
2018-09-20T14:03:38.058Z,52.30
2018-09-20T14:06:40.234Z,52.20
2018-09-20T14:09:11.176Z,52.60
2018-09-20T14:11:40.854Z,52.00
2018-09-20T14:14:09.924Z,52.60
2018-09-20T14:16:39.200Z,52.70
2018-09-20T14:19:08.408Z,53.00
2018-09-20T14:21:37.741Z,52.70
2018-09-20T14:24:07.056Z,53.00
2018-09-20T14:26:36.159Z,52.40
2018-09-20T14:29:05.272Z,52.50
2018-09-20T14:31:34.364Z,52.30
2018-09-20T14:34:03.441Z,52.10
2018-09-20T14:36:32.729Z,51.10
2018-09-20T14:39:01.866Z,50.60
2018-09-20T14:41:30.947Z,51.20
2018-09-20T14:43:59.928Z,50.80
2018-09-20T14:46:28.943Z,50.30
2018-09-20T14:48:59.510Z,50.80
2018-09-20T14:51:28.648Z,52.50
2018-09-20T14:53:57.649Z,52.50
2018-09-20T14:56:26.737Z,52.40
2018-09-20T14:58:55.826Z,52.00
2018-09-20T15:01:25.111Z,52.20
2018-09-20T15:03:54.216Z,52.10
2018-09-20T15:06:23.429Z,51.10
2018-09-20T15:08:52.535Z,52.40
2018-09-20T15:11:21.637Z,51.90
2018-09-20T15:13:50.740Z,50.60
2018-09-20T15:16:19.888Z,50.70
2018-09-20T15:18:50.110Z,51.30
2018-09-20T15:21:19.215Z,51.30
2018-09-20T15:23:48.294Z,51.20
2018-09-20T15:26:17.349Z,51.00
2018-09-20T15:28:46.444Z,51.30
2018-09-20T15:31:15.509Z,50.60
2018-09-20T15:33:44.596Z,50.60
2018-09-20T15:36:13.683Z,50.90
2018-09-20T15:38:42.722Z,51.30
2018-09-20T15:41:11.771Z,51.10
2018-09-20T15:43:40.863Z,50.90
2018-09-20T15:46:10.075Z,50.90
2018-09-20T15:48:39.222Z,50.40
2018-09-20T15:51:08.489Z,50.50
2018-09-20T15:53:37.527Z,50.40
2018-09-20T15:56:06.673Z,49.90
2018-09-20T15:58:35.652Z,49.70
2018-09-20T16:01:04.719Z,49.60
2018-09-20T16:03:33.758Z,49.50
2018-09-20T16:06:02.883Z,49.30
2018-09-20T16:08:31.900Z,49.50
2018-09-20T16:11:00.905Z,50.10
2018-09-20T16:13:29.999Z,51.10
2018-09-20T16:15:59.029Z,51.90
2018-09-20T16:18:28.040Z,51.70
2018-09-20T16:20:57.088Z,52.10
2018-09-20T16:23:26.223Z,52.40
2018-09-20T16:25:55.372Z,52.50
2018-09-20T16:28:34.026Z,52.70
2018-09-20T16:31:19.141Z,52.50
2018-09-20T16:35:28.278Z,52.60
2018-09-20T16:38:18.980Z,53.10
2018-09-20T16:40:50.118Z,53.30
2018-09-20T16:43:19.344Z,53.20
2018-09-20T16:45:48.545Z,53.40
2018-09-20T16:48:17.633Z,53.40
2018-09-20T16:50:46.730Z,53.40
2018-09-20T16:53:16.505Z,53.20
2018-09-20T16:55:45.524Z,53.50
2018-09-20T16:58:14.732Z,53.50
2018-09-20T17:00:43.928Z,53.50
2018-09-20T17:03:12.948Z,53.50
2018-09-20T17:05:42.122Z,53.80
2018-09-20T17:08:11.328Z,53.90
2018-09-20T17:10:40.565Z,53.90
2018-09-20T17:13:09.741Z,54.10
2018-09-20T17:15:38.796Z,54.50
2018-09-20T17:18:07.901Z,54.50
2018-09-20T17:20:37.123Z,54.80
2018-09-20T17:23:06.349Z,54.80
2018-09-20T17:25:35.759Z,55.20
2018-09-20T17:28:05.018Z,54.80
2018-09-20T17:30:34.200Z,54.80
2018-09-20T17:33:03.180Z,54.80
2018-09-20T17:35:33.079Z,54.90
2018-09-20T17:38:03.206Z,55.00
2018-09-20T17:40:33.888Z,55.00
2018-09-20T17:43:05.342Z,55.30
2018-09-20T17:45:34.441Z,55.50
2018-09-20T17:48:03.888Z,55.70
2018-09-20T17:50:32.995Z,55.50
2018-09-20T17:53:02.493Z,55.60
2018-09-20T17:55:33.131Z,55.70
2018-09-20T17:58:02.568Z,55.50
2018-09-20T18:00:31.831Z,55.70
2018-09-20T18:03:01.174Z,55.60
2018-09-20T18:05:30.310Z,55.60
2018-09-20T18:07:59.428Z,55.70
2018-09-20T18:10:28.449Z,55.70
2018-09-20T18:12:57.524Z,55.70
2018-09-20T18:15:26.542Z,55.70
2018-09-20T18:17:55.636Z,55.90
2018-09-20T18:20:24.911Z,56.00
2018-09-20T18:22:53.980Z,56.00
2018-09-20T18:25:23.072Z,56.00
2018-09-20T18:27:52.215Z,56.20
2018-09-20T18:30:21.292Z,56.30
2018-09-20T18:32:50.372Z,56.40
2018-09-20T18:35:19.640Z,56.50
2018-09-20T18:37:49.124Z,56.60
2018-09-20T18:40:18.494Z,56.60
2018-09-20T18:42:47.460Z,56.60
2018-09-20T18:45:16.487Z,56.70
2018-09-20T18:47:45.448Z,56.70
2018-09-20T18:50:14.645Z,57.00
2018-09-20T18:52:43.880Z,57.70
2018-09-20T18:55:13.796Z,57.90
2018-09-20T18:57:42.727Z,58.10
2018-09-20T19:00:11.859Z,58.20
2018-09-20T19:02:40.838Z,58.10
2018-09-20T19:05:09.960Z,57.90
2018-09-20T19:07:39.122Z,58.20
2018-09-20T19:10:08.236Z,58.70
2018-09-20T19:12:37.306Z,59.10
2018-09-20T19:15:05.853Z,59.90
2018-09-20T19:17:33.944Z,59.90
2018-09-20T19:20:02.076Z,59.80
2018-09-20T19:22:30.279Z,59.60
2018-09-20T19:24:58.319Z,59.90
2018-09-20T19:27:26.596Z,59.80
2018-09-20T19:29:54.689Z,59.90
2018-09-20T19:32:22.744Z,60.70
2018-09-20T19:34:50.897Z,61.40
2018-09-20T19:37:19.009Z,62.10
2018-09-20T19:39:47.035Z,62.50
2018-09-20T19:42:15.163Z,63.50
2018-09-20T19:44:43.318Z,61.90
2018-09-20T19:47:11.336Z,61.70
2018-09-20T19:49:39.619Z,61.90
2018-09-20T19:52:08.065Z,62.00
2018-09-20T19:54:36.223Z,61.00
2018-09-20T19:57:04.246Z,61.40
2018-09-20T19:59:32.459Z,61.30
2018-09-20T20:02:00.504Z,61.90
2018-09-20T20:04:28.701Z,61.80
2018-09-20T20:06:56.785Z,62.40
2018-09-20T20:09:24.947Z,62.50
2018-09-20T20:11:52.992Z,62.60
2018-09-20T20:14:21.188Z,63.70
2018-09-20T20:16:49.227Z,62.60
2018-09-20T20:19:17.427Z,62.50
2018-09-20T20:21:45.504Z,61.50
2018-09-20T20:24:13.557Z,61.80
2018-09-20T20:26:41.750Z,62.20
2018-09-20T20:29:09.816Z,61.90
2018-09-20T20:31:37.993Z,61.50
2018-09-20T20:34:06.236Z,61.70
2018-09-20T20:36:34.337Z,61.70
2018-09-20T20:39:02.408Z,61.50
2018-09-20T20:41:30.456Z,61.20
2018-09-20T20:43:58.650Z,61.10
2018-09-20T20:46:26.716Z,60.60
2018-09-20T20:48:54.750Z,61.10
2018-09-20T20:51:22.966Z,61.20
2018-09-20T20:53:51.019Z,61.60
2018-09-20T20:56:19.214Z,61.40
2018-09-20T20:58:47.391Z,61.40
2018-09-20T21:01:20.677Z,60.90
2018-09-20T21:03:49.517Z,62.00
2018-09-20T21:06:18.250Z,63.10
2018-09-20T21:08:46.791Z,62.80
2018-09-20T21:11:15.111Z,62.70
2018-09-20T21:13:43.203Z,62.50
2018-09-20T21:16:11.253Z,62.80
2018-09-20T21:18:39.582Z,63.70
2018-09-20T21:21:07.810Z,63.30
2018-09-20T21:23:35.880Z,63.60
2018-09-20T21:26:03.968Z,63.40
2018-09-20T21:28:32.061Z,63.10
2018-09-20T21:31:00.337Z,62.50
2018-09-20T21:33:28.435Z,63.20
2018-09-20T21:35:56.639Z,63.40
2018-09-20T21:38:24.818Z,63.40
2018-09-20T21:40:52.936Z,63.50
2018-09-20T21:43:21.055Z,63.70
2018-09-20T21:45:49.283Z,63.60
2018-09-20T21:48:17.605Z,64.10
2018-09-20T21:50:46.904Z,64.90
2018-09-20T21:53:16.040Z,64.60
2018-09-20T21:55:45.120Z,64.30
2018-09-20T21:58:14.223Z,64.20
2018-09-20T22:00:42.406Z,64.80
2018-09-20T22:03:11.385Z,64.70
2018-09-20T22:05:40.407Z,65.20
2018-09-20T22:08:08.512Z,65.30
2018-09-20T22:10:36.571Z,65.20
2018-09-20T22:13:05.630Z,65.60
2018-09-20T22:15:34.739Z,65.20
2018-09-20T22:18:03.800Z,65.30
2018-09-20T22:20:32.993Z,65.50
2018-09-20T22:23:02.100Z,65.60
2018-09-20T22:25:31.214Z,66.00
2018-09-20T22:27:59.321Z,66.00
2018-09-20T22:30:28.281Z,65.80
2018-09-20T22:32:56.388Z,65.70
2018-09-20T22:35:24.499Z,66.30
2018-09-20T22:37:53.500Z,67.20
2018-09-20T22:40:22.592Z,67.80
2018-09-20T22:42:51.694Z,67.80
2018-09-20T22:45:20.783Z,68.00
2018-09-20T22:47:49.874Z,67.40
2018-09-20T22:50:18.972Z,68.20
2018-09-20T22:52:48.051Z,68.20
2018-09-20T22:55:17.184Z,68.50
2018-09-20T22:57:46.365Z,68.10
2018-09-20T23:00:19.614Z,68.10
2018-09-20T23:02:48.753Z,68.70
2018-09-20T23:05:17.843Z,69.00
2018-09-20T23:07:46.956Z,69.10
2018-09-20T23:10:16.041Z,69.30
2018-09-20T23:12:45.389Z,69.20
2018-09-20T23:15:14.532Z,69.40
2018-09-20T23:17:43.528Z,69.30
2018-09-20T23:20:12.655Z,68.80
2018-09-20T23:22:41.807Z,69.10
2018-09-20T23:25:10.920Z,69.20
2018-09-20T23:27:40.031Z,69.00
2018-09-20T23:30:09.109Z,69.20
2018-09-20T23:32:38.234Z,68.80
2018-09-20T23:35:07.294Z,68.90
2018-09-20T23:37:36.300Z,69.00
2018-09-20T23:40:05.380Z,69.50
2018-09-20T23:42:34.349Z,68.30
2018-09-20T23:45:03.392Z,69.40
2018-09-20T23:47:32.520Z,70.30
2018-09-20T23:50:01.533Z,69.70
2018-09-20T23:52:30.535Z,69.50
2018-09-20T23:54:59.636Z,69.50
2018-09-20T23:57:28.774Z,69.00
2018-09-20T23:59:57.812Z,69.80
